sensor_id;sensor_type;location;lat;lon;timestamp;pressure;altitude;pressure_sealevel;temperature;humidity
83444;BME280;73374;41.170;-96.156;2024-03-06T00:00:18;97472.41;;;11.95;26.28
83444;BME280;73374;41.170;-96.156;2024-03-06T00:05:21;97477.50;;;11.64;26.48
83444;BME280;73374;41.170;-96.156;2024-03-06T00:10:26;97480.75;;;11.50;26.90
83444;BME280;73374;41.170;-96.156;2024-03-06T00:15:29;97482.69;;;11.23;26.62
83444;BME280;73374;41.170;-96.156;2024-03-06T00:20:32;97480.72;;;11.09;26.93
83444;BME280;73374;41.170;-96.156;2024-03-06T00:25:37;97500.88;;;10.99;27.33
83444;BME280;73374;41.170;-96.156;2024-03-06T00:30:40;97487.66;;;10.68;28.07
83444;BME280;73374;41.170;-96.156;2024-03-06T00:35:43;97487.59;;;10.51;28.39
83444;BME280;73374;41.170;-96.156;2024-03-06T00:40:48;97484.81;;;10.19;29.13
83444;BME280;73374;41.170;-96.156;2024-03-06T00:45:51;97498.88;;;9.74;29.77
83444;BME280;73374;41.170;-96.156;2024-03-06T00:50:54;97499.56;;;9.58;29.96
83444;BME280;73374;41.170;-96.156;2024-03-06T00:55:59;97508.09;;;9.33;30.78
83444;BME280;73374;41.170;-96.156;2024-03-06T01:01:02;97513.75;;;9.28;30.48
83444;BME280;73374;41.170;-96.156;2024-03-06T01:06:05;97514.09;;;9.16;30.57
83444;BME280;73374;41.170;-96.156;2024-03-06T01:11:12;97508.59;;;8.83;30.60
83444;BME280;73374;41.170;-96.156;2024-03-06T01:16:15;97516.22;;;8.85;31.28
83444;BME280;73374;41.170;-96.156;2024-03-06T01:21:18;97520.56;;;8.39;31.79
83444;BME280;73374;41.170;-96.156;2024-03-06T01:26:22;97515.53;;;8.37;31.85
83444;BME280;73374;41.170;-96.156;2024-03-06T01:31:25;97522.00;;;8.14;31.83
83444;BME280;73374;41.170;-96.156;2024-03-06T01:36:28;97523.19;;;7.73;33.47
83444;BME280;73374;41.170;-96.156;2024-03-06T01:41:33;97524.59;;;7.48;34.12
83444;BME280;73374;41.170;-96.156;2024-03-06T01:46:36;97531.66;;;7.46;34.11
83444;BME280;73374;41.170;-96.156;2024-03-06T01:51:40;97532.47;;;7.27;33.95
83444;BME280;73374;41.170;-96.156;2024-03-06T01:56:45;97529.63;;;7.20;34.52
83444;BME280;73374;41.170;-96.156;2024-03-06T02:01:49;97518.59;;;6.89;34.78
83444;BME280;73374;41.170;-96.156;2024-03-06T02:06:55;97521.81;;;6.62;35.59
83444;BME280;73374;41.170;-96.156;2024-03-06T02:12:00;97527.47;;;6.56;35.12
83444;BME280;73374;41.170;-96.156;2024-03-06T02:17:03;97536.66;;;6.30;36.13
83444;BME280;73374;41.170;-96.156;2024-03-06T02:22:08;97542.78;;;6.39;35.26
83444;BME280;73374;41.170;-96.156;2024-03-06T02:27:11;97539.06;;;6.01;37.91
83444;BME280;73374;41.170;-96.156;2024-03-06T02:32:14;97551.13;;;5.91;36.87
83444;BME280;73374;41.170;-96.156;2024-03-06T02:37:19;97546.94;;;5.58;37.87
83444;BME280;73374;41.170;-96.156;2024-03-06T02:42:22;97558.38;;;5.65;37.36
83444;BME280;73374;41.170;-96.156;2024-03-06T02:47:25;97545.91;;;5.49;36.79
83444;BME280;73374;41.170;-96.156;2024-03-06T02:52:30;97554.25;;;5.21;38.33
83444;BME280;73374;41.170;-96.156;2024-03-06T02:57:33;97563.16;;;5.37;38.18
83444;BME280;73374;41.170;-96.156;2024-03-06T03:02:36;97559.03;;;5.25;38.43
83444;BME280;73374;41.170;-96.156;2024-03-06T03:07:41;97556.34;;;5.15;37.98
83444;BME280;73374;41.170;-96.156;2024-03-06T03:12:44;97557.88;;;5.18;37.85
83444;BME280;73374;41.170;-96.156;2024-03-06T03:17:47;97573.97;;;5.31;38.14
83444;BME280;73374;41.170;-96.156;2024-03-06T03:22:52;97576.53;;;4.99;39.11
83444;BME280;73374;41.170;-96.156;2024-03-06T03:27:55;97573.88;;;4.67;41.74
83444;BME280;73374;41.170;-96.156;2024-03-06T03:32:58;97570.88;;;4.62;42.23
83444;BME280;73374;41.170;-96.156;2024-03-06T03:38:03;97574.16;;;4.53;41.22
83444;BME280;73374;41.170;-96.156;2024-03-06T03:43:06;97567.84;;;4.23;42.63
83444;BME280;73374;41.170;-96.156;2024-03-06T03:48:09;97549.47;;;3.94;43.41
83444;BME280;73374;41.170;-96.156;2024-03-06T03:53:14;97556.72;;;4.01;41.99
83444;BME280;73374;41.170;-96.156;2024-03-06T03:58:17;97567.09;;;3.99;42.88
83444;BME280;73374;41.170;-96.156;2024-03-06T04:03:20;97561.69;;;3.80;43.21
83444;BME280;73374;41.170;-96.156;2024-03-06T04:08:25;97565.44;;;3.41;44.61
83444;BME280;73374;41.170;-96.156;2024-03-06T04:13:28;97564.69;;;3.27;44.98
83444;BME280;73374;41.170;-96.156;2024-03-06T04:18:30;97568.25;;;3.38;44.02
83444;BME280;73374;41.170;-96.156;2024-03-06T04:23:35;97564.69;;;3.27;43.91
83444;BME280;73374;41.170;-96.156;2024-03-06T04:28:38;97582.25;;;3.33;44.02
83444;BME280;73374;41.170;-96.156;2024-03-06T04:33:42;97575.09;;;3.02;44.84
83444;BME280;73374;41.170;-96.156;2024-03-06T04:38:46;97569.28;;;3.11;44.13
83444;BME280;73374;41.170;-96.156;2024-03-06T04:43:49;97561.13;;;2.93;45.01
83444;BME280;73374;41.170;-96.156;2024-03-06T04:48:53;97564.25;;;2.86;44.59
83444;BME280;73374;41.170;-96.156;2024-03-06T04:53:58;97562.50;;;2.62;45.40
83444;BME280;73374;41.170;-96.156;2024-03-06T04:59:01;97569.50;;;2.48;45.74
83444;BME280;73374;41.170;-96.156;2024-03-06T05:04:04;97566.81;;;2.62;46.14
83444;BME280;73374;41.170;-96.156;2024-03-06T05:09:26;97564.84;;;2.65;45.17
83444;BME280;73374;41.170;-96.156;2024-03-06T05:14:46;97557.03;;;2.91;45.74
83444;BME280;73374;41.170;-96.156;2024-03-06T05:20:07;97548.75;;;2.87;45.24
83444;BME280;73374;41.170;-96.156;2024-03-06T05:25:29;97559.56;;;2.80;46.79
83444;BME280;73374;41.170;-96.156;2024-03-06T05:30:49;97554.25;;;2.70;46.46
83444;BME280;73374;41.170;-96.156;2024-03-06T05:36:09;97562.19;;;2.54;47.92
83444;BME280;73374;41.170;-96.156;2024-03-06T05:41:30;97557.88;;;2.55;46.41
83444;BME280;73374;41.170;-96.156;2024-03-06T05:46:50;97557.81;;;2.44;47.12
83444;BME280;73374;41.170;-96.156;2024-03-06T05:52:10;97551.34;;;2.25;47.14
83444;BME280;73374;41.170;-96.156;2024-03-06T05:57:32;97561.44;;;2.03;47.69
83444;BME280;73374;41.170;-96.156;2024-03-06T06:02:52;97561.41;;;1.90;48.11
83444;BME280;73374;41.170;-96.156;2024-03-06T06:07:55;97574.03;;;2.06;47.62
83444;BME280;73374;41.170;-96.156;2024-03-06T06:12:59;97566.97;;;2.09;47.44
83444;BME280;73374;41.170;-96.156;2024-03-06T06:18:02;97557.53;;;1.97;47.47
83444;BME280;73374;41.170;-96.156;2024-03-06T06:23:05;97569.22;;;1.89;47.43
83444;BME280;73374;41.170;-96.156;2024-03-06T06:28:09;97565.63;;;1.78;47.13
83444;BME280;73374;41.170;-96.156;2024-03-06T06:33:12;97554.31;;;1.43;48.16
83444;BME280;73374;41.170;-96.156;2024-03-06T06:38:16;97551.63;;;1.32;48.71
83444;BME280;73374;41.170;-96.156;2024-03-06T06:43:21;97553.88;;;1.36;47.94
83444;BME280;73374;41.170;-96.156;2024-03-06T06:48:24;97554.44;;;1.14;49.34
83444;BME280;73374;41.170;-96.156;2024-03-06T06:53:27;97559.28;;;0.92;49.61
83444;BME280;73374;41.170;-96.156;2024-03-06T06:58:31;97546.59;;;0.90;51.20
83444;BME280;73374;41.170;-96.156;2024-03-06T07:03:34;97553.53;;;0.88;57.11
83444;BME280;73374;41.170;-96.156;2024-03-06T07:08:37;97556.47;;;1.09;52.78
83444;BME280;73374;41.170;-96.156;2024-03-06T07:13:41;97562.06;;;0.75;50.74
83444;BME280;73374;41.170;-96.156;2024-03-06T07:18:44;97551.44;;;0.54;51.53
83444;BME280;73374;41.170;-96.156;2024-03-06T07:23:47;97550.63;;;0.53;51.27
83444;BME280;73374;41.170;-96.156;2024-03-06T07:28:52;97555.38;;;0.45;51.88
83444;BME280;73374;41.170;-96.156;2024-03-06T07:33:55;97551.25;;;0.57;50.64
83444;BME280;73374;41.170;-96.156;2024-03-06T07:38:59;97552.47;;;0.37;51.03
83444;BME280;73374;41.170;-96.156;2024-03-06T07:44:03;97551.00;;;0.33;51.16
83444;BME280;73374;41.170;-96.156;2024-03-06T07:49:06;97573.53;;;0.41;51.41
83444;BME280;73374;41.170;-96.156;2024-03-06T07:54:09;97579.19;;;0.32;51.90
83444;BME280;73374;41.170;-96.156;2024-03-06T07:59:14;97578.03;;;0.37;51.18
83444;BME280;73374;41.170;-96.156;2024-03-06T08:04:17;97585.41;;;0.27;51.48
83444;BME280;73374;41.170;-96.156;2024-03-06T08:09:20;97586.22;;;0.14;51.98
83444;BME280;73374;41.170;-96.156;2024-03-06T08:14:25;97593.16;;;0.12;51.92
83444;BME280;73374;41.170;-96.156;2024-03-06T08:19:28;97586.94;;;0.30;50.76
83444;BME280;73374;41.170;-96.156;2024-03-06T08:24:31;97580.19;;;0.29;50.93
83444;BME280;73374;41.170;-96.156;2024-03-06T08:29:35;97575.56;;;0.36;50.70
83444;BME280;73374;41.170;-96.156;2024-03-06T08:34:38;97583.56;;;0.15;51.76
83444;BME280;73374;41.170;-96.156;2024-03-06T08:39:41;97575.28;;;0.40;51.29
83444;BME280;73374;41.170;-96.156;2024-03-06T08:44:46;97578.38;;;-0.12;52.72
83444;BME280;73374;41.170;-96.156;2024-03-06T08:49:49;97565.97;;;0.25;53.90
83444;BME280;73374;41.170;-96.156;2024-03-06T08:54:52;97564.97;;;0.13;54.47
83444;BME280;73374;41.170;-96.156;2024-03-06T08:59:57;97560.50;;;0.03;54.79
83444;BME280;73374;41.170;-96.156;2024-03-06T09:05:00;97554.25;;;-0.36;55.28
83444;BME280;73374;41.170;-96.156;2024-03-06T09:10:04;97541.66;;;-0.39;54.67
83444;BME280;73374;41.170;-96.156;2024-03-06T09:15:09;97523.03;;;0.85;50.58
83444;BME280;73374;41.170;-96.156;2024-03-06T09:20:12;97520.50;;;0.44;52.23
83444;BME280;73374;41.170;-96.156;2024-03-06T09:25:16;97518.34;;;0.38;52.55
83444;BME280;73374;41.170;-96.156;2024-03-06T09:30:21;97523.91;;;-0.85;56.62
83444;BME280;73374;41.170;-96.156;2024-03-06T09:35:24;97511.97;;;-1.46;58.88
83444;BME280;73374;41.170;-96.156;2024-03-06T09:40:28;97517.50;;;-1.38;58.56
83444;BME280;73374;41.170;-96.156;2024-03-06T09:45:33;97508.16;;;-1.23;57.93
83444;BME280;73374;41.170;-96.156;2024-03-06T09:50:37;97494.56;;;-1.69;58.74
83444;BME280;73374;41.170;-96.156;2024-03-06T09:55:42;97474.63;;;-1.15;59.37
83444;BME280;73374;41.170;-96.156;2024-03-06T10:00:48;97473.72;;;-0.84;59.70
83444;BME280;73374;41.170;-96.156;2024-03-06T10:05:52;97481.47;;;-0.86;60.83
83444;BME280;73374;41.170;-96.156;2024-03-06T10:10:56;97476.53;;;-1.05;63.05
83444;BME280;73374;41.170;-96.156;2024-03-06T10:16:02;97465.34;;;-1.16;63.28
83444;BME280;73374;41.170;-96.156;2024-03-06T10:21:05;97472.81;;;-1.13;65.28
83444;BME280;73374;41.170;-96.156;2024-03-06T10:26:08;97461.38;;;-0.92;65.30
83444;BME280;73374;41.170;-96.156;2024-03-06T10:31:13;97459.06;;;-0.81;64.23
83444;BME280;73374;41.170;-96.156;2024-03-06T10:36:16;97470.34;;;-0.85;64.30
83444;BME280;73374;41.170;-96.156;2024-03-06T10:41:22;97471.97;;;-0.84;64.32
83444;BME280;73374;41.170;-96.156;2024-03-06T10:46:28;97486.59;;;-1.79;64.03
83444;BME280;73374;41.170;-96.156;2024-03-06T10:51:32;97495.72;;;-1.91;64.69
83444;BME280;73374;41.170;-96.156;2024-03-06T10:56:40;97492.09;;;-1.87;64.96
83444;BME280;73374;41.170;-96.156;2024-03-06T11:01:46;97505.31;;;-1.64;64.80
83444;BME280;73374;41.170;-96.156;2024-03-06T11:06:49;97510.34;;;-1.47;64.90
83444;BME280;73374;41.170;-96.156;2024-03-06T11:11:54;97498.72;;;-1.21;64.95
83444;BME280;73374;41.170;-96.156;2024-03-06T11:17:01;97507.19;;;-1.20;64.60
83444;BME280;73374;41.170;-96.156;2024-03-06T11:22:05;97486.63;;;-1.17;64.86
83444;BME280;73374;41.170;-96.156;2024-03-06T11:27:08;97496.53;;;-0.53;63.86
83444;BME280;73374;41.170;-96.156;2024-03-06T11:32:13;97495.03;;;-0.85;64.05
83444;BME280;73374;41.170;-96.156;2024-03-06T11:37:20;97502.59;;;-0.84;63.99
83444;BME280;73374;41.170;-96.156;2024-03-06T11:42:33;97498.91;;;-0.94;63.83
83444;BME280;73374;41.170;-96.156;2024-03-06T11:47:58;97507.16;;;-0.75;65.04
83444;BME280;73374;41.170;-96.156;2024-03-06T11:53:02;97522.09;;;-0.83;65.45
83444;BME280;73374;41.170;-96.156;2024-03-06T11:58:05;97516.03;;;-0.96;64.17
83444;BME280;73374;41.170;-96.156;2024-03-06T12:03:31;97521.16;;;-1.12;64.70
83444;BME280;73374;41.170;-96.156;2024-03-06T12:08:34;97527.88;;;-0.95;64.25
83444;BME280;73374;41.170;-96.156;2024-03-06T12:13:37;97533.97;;;-0.98;64.29
83444;BME280;73374;41.170;-96.156;2024-03-06T12:18:42;97535.44;;;-1.09;65.44
83444;BME280;73374;41.170;-96.156;2024-03-06T12:23:45;97523.69;;;-1.12;63.88
83444;BME280;73374;41.170;-96.156;2024-03-06T12:28:48;97526.41;;;-0.99;64.07
83444;BME280;73374;41.170;-96.156;2024-03-06T12:33:58;97518.63;;;-0.82;63.65
83444;BME280;73374;41.170;-96.156;2024-03-06T12:39:06;97521.84;;;-0.64;61.99
83444;BME280;73374;41.170;-96.156;2024-03-06T12:44:09;97537.69;;;-0.29;59.60
83444;BME280;73374;41.170;-96.156;2024-03-06T12:49:14;97524.44;;;-0.36;59.82
83444;BME280;73374;41.170;-96.156;2024-03-06T12:54:17;97529.63;;;-0.51;61.38
83444;BME280;73374;41.170;-96.156;2024-03-06T12:59:22;97524.63;;;-0.39;61.72
83444;BME280;73374;41.170;-96.156;2024-03-06T13:04:26;97533.69;;;-0.33;61.09
83444;BME280;73374;41.170;-96.156;2024-03-06T13:09:29;97538.94;;;-0.22;61.57
83444;BME280;73374;41.170;-96.156;2024-03-06T13:14:32;97546.53;;;-0.20;62.59
83444;BME280;73374;41.170;-96.156;2024-03-06T13:19:37;97547.34;;;-0.20;62.12
83444;BME280;73374;41.170;-96.156;2024-03-06T13:24:40;97525.38;;;0.20;60.72
83444;BME280;73374;41.170;-96.156;2024-03-06T13:29:46;97524.88;;;0.42;60.04
83444;BME280;73374;41.170;-96.156;2024-03-06T13:34:51;97536.47;;;0.89;57.94
83444;BME280;73374;41.170;-96.156;2024-03-06T13:39:54;97534.69;;;1.16;55.45
83444;BME280;73374;41.170;-96.156;2024-03-06T13:44:57;97546.50;;;1.32;54.39
83444;BME280;73374;41.170;-96.156;2024-03-06T13:50:01;97557.13;;;1.78;53.69
83444;BME280;73374;41.170;-96.156;2024-03-06T13:55:05;97556.19;;;2.04;52.64
83444;BME280;73374;41.170;-96.156;2024-03-06T14:00:10;97544.59;;;2.24;50.83
83444;BME280;73374;41.170;-96.156;2024-03-06T14:05:15;97540.69;;;2.44;50.22
83444;BME280;73374;41.170;-96.156;2024-03-06T14:10:18;97561.81;;;2.84;49.61
83444;BME280;73374;41.170;-96.156;2024-03-06T14:15:22;97554.13;;;3.89;46.74
83444;BME280;73374;41.170;-96.156;2024-03-06T14:20:26;97564.56;;;4.55;46.49
83444;BME280;73374;41.170;-96.156;2024-03-06T14:25:30;97570.28;;;5.24;44.41
83444;BME280;73374;41.170;-96.156;2024-03-06T14:30:32;97567.03;;;5.85;44.87
83444;BME280;73374;41.170;-96.156;2024-03-06T14:35:37;97574.59;;;5.56;45.43
83444;BME280;73374;41.170;-96.156;2024-03-06T14:40:40;97575.19;;;6.01;46.22
83444;BME280;73374;41.170;-96.156;2024-03-06T14:45:45;97567.03;;;5.96;45.66
83444;BME280;73374;41.170;-96.156;2024-03-06T14:50:50;97565.19;;;6.08;46.77
83444;BME280;73374;41.170;-96.156;2024-03-06T14:55:53;97581.13;;;6.22;46.74
83444;BME280;73374;41.170;-96.156;2024-03-06T15:00:56;97579.69;;;6.60;47.64
83444;BME280;73374;41.170;-96.156;2024-03-06T15:06:01;97581.75;;;6.76;47.69
83444;BME280;73374;41.170;-96.156;2024-03-06T15:11:04;97585.81;;;7.18;48.45
83444;BME280;73374;41.170;-96.156;2024-03-06T15:16:07;97576.00;;;7.12;49.66
83444;BME280;73374;41.170;-96.156;2024-03-06T15:21:12;97579.38;;;8.00;48.99
83444;BME280;73374;41.170;-96.156;2024-03-06T15:26:15;97581.84;;;7.92;49.39
83444;BME280;73374;41.170;-96.156;2024-03-06T15:31:18;97592.06;;;7.83;50.21
83444;BME280;73374;41.170;-96.156;2024-03-06T15:36:23;97600.78;;;7.82;50.87
83444;BME280;73374;41.170;-96.156;2024-03-06T15:41:26;97593.41;;;7.97;50.96
83444;BME280;73374;41.170;-96.156;2024-03-06T15:46:29;97597.72;;;8.35;50.80
83444;BME280;73374;41.170;-96.156;2024-03-06T15:51:34;97593.50;;;8.71;49.58
83444;BME280;73374;41.170;-96.156;2024-03-06T15:56:37;97574.13;;;9.39;50.32
83444;BME280;73374;41.170;-96.156;2024-03-06T16:01:40;97568.03;;;9.65;48.99
83444;BME280;73374;41.170;-96.156;2024-03-06T16:06:46;97567.63;;;10.22;47.01
83444;BME280;73374;41.170;-96.156;2024-03-06T16:11:50;97559.03;;;10.47;45.84
83444;BME280;73374;41.170;-96.156;2024-03-06T16:16:53;97561.84;;;10.62;46.09
83444;BME280;73374;41.170;-96.156;2024-03-06T16:21:57;97546.06;;;10.55;46.85
83444;BME280;73374;41.170;-96.156;2024-03-06T16:27:00;97541.84;;;10.54;45.94
83444;BME280;73374;41.170;-96.156;2024-03-06T16:32:04;97533.38;;;11.03;45.74
83444;BME280;73374;41.170;-96.156;2024-03-06T16:37:09;97526.72;;;11.08;45.79
83444;BME280;73374;41.170;-96.156;2024-03-06T16:42:12;97530.78;;;11.03;44.00
83444;BME280;73374;41.170;-96.156;2024-03-06T16:47:15;97531.00;;;11.42;43.75
83444;BME280;73374;41.170;-96.156;2024-03-06T16:52:20;97530.34;;;11.40;43.41
83444;BME280;73374;41.170;-96.156;2024-03-06T16:57:23;97519.09;;;11.23;42.96
83444;BME280;73374;41.170;-96.156;2024-03-06T17:02:26;97519.78;;;11.74;39.78
83444;BME280;73374;41.170;-96.156;2024-03-06T17:07:31;97528.56;;;11.32;41.42
83444;BME280;73374;41.170;-96.156;2024-03-06T17:12:34;97508.88;;;12.50;39.14
83444;BME280;73374;41.170;-96.156;2024-03-06T17:17:37;97496.38;;;12.77;38.30
83444;BME280;73374;41.170;-96.156;2024-03-06T17:22:42;97500.00;;;12.67;37.32
83444;BME280;73374;41.170;-96.156;2024-03-06T17:27:45;97482.34;;;13.54;36.44
83444;BME280;73374;41.170;-96.156;2024-03-06T17:32:48;97485.03;;;12.61;36.60
83444;BME280;73374;41.170;-96.156;2024-03-06T17:37:53;97480.91;;;11.89;37.99
83444;BME280;73374;41.170;-96.156;2024-03-06T17:42:56;97473.47;;;12.25;37.47
83444;BME280;73374;41.170;-96.156;2024-03-06T17:47:59;97464.28;;;11.73;35.84
83444;BME280;73374;41.170;-96.156;2024-03-06T17:53:04;97466.69;;;12.07;36.34
83444;BME280;73374;41.170;-96.156;2024-03-06T17:58:07;97470.91;;;12.08;37.37
83444;BME280;73374;41.170;-96.156;2024-03-06T18:03:10;97455.78;;;13.05;37.24
83444;BME280;73374;41.170;-96.156;2024-03-06T18:08:15;97446.91;;;13.37;36.13
83444;BME280;73374;41.170;-96.156;2024-03-06T18:13:18;97438.66;;;14.52;34.41
83444;BME280;73374;41.170;-96.156;2024-03-06T18:18:21;97417.44;;;13.96;35.08
83444;BME280;73374;41.170;-96.156;2024-03-06T18:23:26;97413.00;;;15.19;32.45
83444;BME280;73374;41.170;-96.156;2024-03-06T18:28:29;97417.00;;;14.94;32.58
83444;BME280;73374;41.170;-96.156;2024-03-06T18:33:32;97404.25;;;14.69;32.35
83444;BME280;73374;41.170;-96.156;2024-03-06T18:38:37;97395.59;;;14.47;32.99
83444;BME280;73374;41.170;-96.156;2024-03-06T18:43:40;97380.28;;;14.87;32.90
83444;BME280;73374;41.170;-96.156;2024-03-06T18:48:46;97377.91;;;14.92;31.27
83444;BME280;73374;41.170;-96.156;2024-03-06T18:53:50;97368.25;;;15.42;30.45
83444;BME280;73374;41.170;-96.156;2024-03-06T18:58:54;97374.06;;;14.31;30.52
83444;BME280;73374;41.170;-96.156;2024-03-06T19:03:57;97360.19;;;14.45;30.26
83444;BME280;73374;41.170;-96.156;2024-03-06T19:09:02;97339.50;;;15.21;30.04
83444;BME280;73374;41.170;-96.156;2024-03-06T19:14:05;97328.41;;;15.47;29.15
83444;BME280;73374;41.170;-96.156;2024-03-06T19:19:08;97323.56;;;15.16;30.31
83444;BME280;73374;41.170;-96.156;2024-03-06T19:24:13;97321.66;;;15.31;30.12
83444;BME280;73374;41.170;-96.156;2024-03-06T19:29:16;97320.19;;;14.51;32.29
83444;BME280;73374;41.170;-96.156;2024-03-06T19:34:19;97289.94;;;15.13;30.71
83444;BME280;73374;41.170;-96.156;2024-03-06T19:39:24;97279.88;;;15.16;31.93
83444;BME280;73374;41.170;-96.156;2024-03-06T19:44:27;97279.78;;;14.75;31.69
83444;BME280;73374;41.170;-96.156;2024-03-06T19:49:30;97263.09;;;14.76;32.14
83444;BME280;73374;41.170;-96.156;2024-03-06T19:54:36;97246.63;;;15.10;31.97
83444;BME280;73374;41.170;-96.156;2024-03-06T19:59:39;97236.97;;;14.33;32.50
83444;BME280;73374;41.170;-96.156;2024-03-06T20:04:42;97232.78;;;14.17;33.53
83444;BME280;73374;41.170;-96.156;2024-03-06T20:09:47;97207.88;;;14.64;33.53
83444;BME280;73374;41.170;-96.156;2024-03-06T20:14:50;97200.41;;;14.40;32.63
83444;BME280;73374;41.170;-96.156;2024-03-06T20:19:53;97183.09;;;14.39;31.98
83444;BME280;73374;41.170;-96.156;2024-03-06T20:24:58;97199.06;;;14.23;31.26
83444;BME280;73374;41.170;-96.156;2024-03-06T20:30:01;97200.25;;;13.99;30.54
83444;BME280;73374;41.170;-96.156;2024-03-06T20:35:05;97191.41;;;13.78;30.87
83444;BME280;73374;41.170;-96.156;2024-03-06T20:40:11;97191.66;;;14.05;31.49
83444;BME280;73374;41.170;-96.156;2024-03-06T20:45:14;97193.53;;;14.11;31.34
83444;BME280;73374;41.170;-96.156;2024-03-06T20:50:17;97178.06;;;14.09;31.97
83444;BME280;73374;41.170;-96.156;2024-03-06T20:55:22;97175.34;;;14.03;32.07
83444;BME280;73374;41.170;-96.156;2024-03-06T21:00:25;97156.25;;;14.02;32.16
83444;BME280;73374;41.170;-96.156;2024-03-06T21:05:28;97140.47;;;14.10;31.25
83444;BME280;73374;41.170;-96.156;2024-03-06T21:10:33;97127.19;;;14.33;31.61
83444;BME280;73374;41.170;-96.156;2024-03-06T21:15:36;97137.09;;;14.66;31.57
83444;BME280;73374;41.170;-96.156;2024-03-06T21:20:39;97128.75;;;14.56;31.93
83444;BME280;73374;41.170;-96.156;2024-03-06T21:25:43;97126.41;;;14.39;31.96
83444;BME280;73374;41.170;-96.156;2024-03-06T21:30:46;97115.47;;;14.01;32.00
83444;BME280;73374;41.170;-96.156;2024-03-06T21:35:49;97116.34;;;13.87;32.63
83444;BME280;73374;41.170;-96.156;2024-03-06T21:40:54;97114.72;;;13.43;33.04
83444;BME280;73374;41.170;-96.156;2024-03-06T21:45:57;97092.97;;;13.79;32.34
83444;BME280;73374;41.170;-96.156;2024-03-06T21:51:00;97075.66;;;13.71;32.12
83444;BME280;73374;41.170;-96.156;2024-03-06T21:56:07;97102.06;;;13.62;31.63
83444;BME280;73374;41.170;-96.156;2024-03-06T22:01:10;97099.94;;;13.50;30.94
83444;BME280;73374;41.170;-96.156;2024-03-06T22:06:13;97077.63;;;13.48;31.21
83444;BME280;73374;41.170;-96.156;2024-03-06T22:11:18;97070.34;;;13.65;30.96
83444;BME280;73374;41.170;-96.156;2024-03-06T22:16:21;97068.50;;;13.37;31.60
83444;BME280;73374;41.170;-96.156;2024-03-06T22:21:24;97072.22;;;13.13;31.64
83444;BME280;73374;41.170;-96.156;2024-03-06T22:26:30;97044.72;;;12.96;32.17
83444;BME280;73374;41.170;-96.156;2024-03-06T22:31:33;97028.66;;;13.14;31.54
83444;BME280;73374;41.170;-96.156;2024-03-06T22:36:36;97055.56;;;12.78;32.01
83444;BME280;73374;41.170;-96.156;2024-03-06T22:41:40;97041.44;;;12.87;31.82
83444;BME280;73374;41.170;-96.156;2024-03-06T22:46:43;97050.09;;;12.73;31.30
83444;BME280;73374;41.170;-96.156;2024-03-06T22:51:53;97018.06;;;12.79;31.30
83444;BME280;73374;41.170;-96.156;2024-03-06T22:56:57;97031.41;;;12.55;30.77
83444;BME280;73374;41.170;-96.156;2024-03-06T23:02:00;97044.00;;;12.51;30.92
83444;BME280;73374;41.170;-96.156;2024-03-06T23:07:03;97038.59;;;12.67;31.45
83444;BME280;73374;41.170;-96.156;2024-03-06T23:12:08;97047.69;;;12.57;31.74
83444;BME280;73374;41.170;-96.156;2024-03-06T23:17:11;97053.63;;;12.36;32.01
83444;BME280;73374;41.170;-96.156;2024-03-06T23:22:14;97030.97;;;12.51;31.96
83444;BME280;73374;41.170;-96.156;2024-03-06T23:27:19;97030.34;;;12.34;32.43
83444;BME280;73374;41.170;-96.156;2024-03-06T23:32:22;96996.28;;;12.51;32.13
83444;BME280;73374;41.170;-96.156;2024-03-06T23:37:25;97011.31;;;12.19;32.75
83444;BME280;73374;41.170;-96.156;2024-03-06T23:42:30;97012.47;;;12.17;32.75
83444;BME280;73374;41.170;-96.156;2024-03-06T23:47:33;97038.13;;;12.05;33.40
83444;BME280;73374;41.170;-96.156;2024-03-06T23:52:36;97027.44;;;12.15;32.91
83444;BME280;73374;41.170;-96.156;2024-03-06T23:57:41;97023.94;;;11.93;33.39
